createdAt,value
2018-09-24T00:00:38.037Z,4.56
2018-09-24T00:01:47.899Z,4.49
2018-09-24T00:02:58.032Z,4.49
2018-09-24T00:04:07.896Z,4.64
2018-09-24T00:05:18.026Z,4.64
2018-09-24T00:06:27.880Z,4.52
2018-09-24T00:07:37.199Z,4.56
2018-09-24T00:08:47.379Z,4.43
2018-09-24T00:09:57.509Z,4.58
2018-09-24T00:11:07.366Z,4.4
2018-09-24T00:12:16.671Z,4.42
2018-09-24T00:13:26.802Z,4.53
2018-09-24T00:14:36.712Z,4.46
2018-09-24T00:15:46.842Z,4.56
2018-09-24T00:16:56.701Z,4.43
2018-09-24T00:18:06.828Z,4.46
2018-09-24T00:19:16.688Z,4.4
2018-09-24T00:20:26.540Z,4.25
2018-09-24T00:21:36.666Z,4.24
2018-09-24T00:22:46.792Z,4.31
2018-09-24T00:23:56.918Z,4.25
2018-09-24T00:25:06.501Z,4.25
2018-09-24T00:26:16.179Z,4.3
2018-09-24T00:27:26.308Z,4.21
2018-09-24T00:28:36.442Z,4.2
2018-09-24T00:29:46.304Z,4.3
2018-09-24T00:30:56.158Z,4.27
2018-09-24T00:32:06.296Z,4.13
2018-09-24T00:33:16.426Z,4.28
2018-09-24T00:34:26.607Z,4.2
2018-09-24T00:35:36.472Z,4.24
2018-09-24T00:36:46.326Z,4.25
2018-09-24T00:37:56.456Z,4.22
2018-09-24T00:39:06.309Z,4.3
2018-09-24T00:40:16.442Z,4.32
2018-09-24T00:41:26.293Z,4.31
2018-09-24T00:42:36.147Z,4.39
2018-09-24T00:43:46.016Z,4.4
2018-09-24T00:44:55.875Z,4.53
2018-09-24T00:46:06.002Z,4.43
2018-09-24T00:47:16.132Z,4.39
2018-09-24T00:48:26.003Z,4.4
2018-09-24T00:49:36.186Z,4.43
2018-09-24T00:50:46.322Z,4.39
2018-09-24T00:51:56.451Z,4.46
2018-09-24T00:53:06.319Z,4.46
2018-09-24T00:54:16.447Z,4.46
2018-09-24T00:55:26.356Z,4.38
2018-09-24T00:56:36.207Z,4.39
2018-09-24T00:57:46.332Z,4.39
2018-09-24T00:58:56.462Z,4.43
2018-09-24T01:00:06.605Z,4.52
2018-09-24T01:01:16.462Z,4.46
2018-09-24T01:02:26.588Z,4.49
2018-09-24T01:03:36.721Z,4.49
2018-09-24T01:04:46.571Z,4.45
2018-09-24T01:05:56.441Z,4.4
2018-09-24T01:07:06.297Z,4.48
2018-09-24T01:08:16.429Z,4.5
2018-09-24T01:09:26.561Z,4.5
2018-09-24T01:10:36.688Z,4.53
2018-09-24T01:11:46.552Z,4.58
2018-09-24T01:12:56.407Z,4.66
2018-09-24T01:14:06.537Z,4.61
2018-09-24T01:15:16.671Z,4.58
2018-09-24T01:16:26.528Z,4.58
2018-09-24T01:17:36.386Z,4.67
2018-09-24T01:18:46.235Z,4.68
2018-09-24T01:19:56.090Z,4.7
2018-09-24T01:21:06.219Z,4.7
2018-09-24T01:22:16.349Z,4.67
2018-09-24T01:23:26.205Z,4.83
2018-09-24T01:24:36.340Z,4.74
2018-09-24T01:25:46.192Z,4.78
2018-09-24T01:26:56.321Z,4.98
2018-09-24T01:28:06.237Z,5
2018-09-24T01:29:16.365Z,4.97
2018-09-24T01:30:26.498Z,5
2018-09-24T01:31:36.369Z,4.92
2018-09-24T01:32:46.233Z,4.94
2018-09-24T01:33:56.357Z,4.97
2018-09-24T01:35:06.489Z,4.95
2018-09-24T01:36:16.623Z,4.95
2018-09-24T01:37:26.484Z,4.79
2018-09-24T01:38:36.071Z,4.74
2018-09-24T01:39:46.200Z,4.53
2018-09-24T01:40:56.062Z,4.4
2018-09-24T01:42:06.202Z,4.27
2018-09-24T01:43:15.784Z,4.16
2018-09-24T01:44:25.642Z,4.03
2018-09-24T01:45:35.779Z,3.96
2018-09-24T01:46:45.636Z,3.86
2018-09-24T01:47:57.496Z,3.76
2018-09-24T01:49:07.353Z,3.76
2018-09-24T01:50:16.657Z,3.76
2018-09-24T01:51:26.830Z,3.76
2018-09-24T01:52:36.960Z,3.56
2018-09-24T01:53:46.816Z,3.59
2018-09-24T01:54:56.944Z,3.7
2018-09-24T01:56:06.527Z,3.56
2018-09-24T01:57:16.107Z,3.48
2018-09-24T01:58:26.233Z,3.4
2018-09-24T01:59:36.086Z,3.31
2018-09-24T02:00:46.217Z,3.34
2018-09-24T02:01:56.410Z,3.31
2018-09-24T02:03:06.266Z,3.22
2018-09-24T02:04:16.116Z,3.18
2018-09-24T02:05:26.299Z,3.18
2018-09-24T02:06:36.151Z,3.19
2018-09-24T02:07:46.274Z,3.18
2018-09-24T02:08:56.407Z,3.15
2018-09-24T02:10:05.708Z,3.29
2018-09-24T02:11:15.010Z,3.3
2018-09-24T02:12:24.314Z,3.22
2018-09-24T02:13:34.448Z,3.34
2018-09-24T02:14:44.295Z,3.37
2018-09-24T02:15:54.146Z,3.55
2018-09-24T02:17:03.726Z,3.82
2018-09-24T02:18:13.302Z,4.02
2018-09-24T02:19:23.435Z,4.09
2018-09-24T02:20:33.337Z,4.25
2018-09-24T02:21:42.916Z,4.3
2018-09-24T02:22:55.061Z,4.36
2018-09-24T02:24:04.919Z,4.46
2018-09-24T02:25:14.790Z,4.5
2018-09-24T02:26:24.921Z,4.38
2018-09-24T02:27:34.831Z,4.45
2018-09-24T02:28:45.012Z,4.4
2018-09-24T02:29:55.143Z,4.4
2018-09-24T02:31:05.279Z,4.22
2018-09-24T02:32:15.418Z,4.24
2018-09-24T02:33:25.550Z,4.12
2018-09-24T02:34:34.853Z,4.07
2018-09-24T02:35:44.444Z,3.92
2018-09-24T02:36:54.577Z,3.94
2018-09-24T02:38:04.160Z,3.89
2018-09-24T02:39:14.288Z,3.91
2018-09-24T02:40:24.468Z,3.84
2018-09-24T02:41:33.774Z,3.81
2018-09-24T02:42:43.630Z,3.82
2018-09-24T02:43:53.762Z,3.74
2018-09-24T02:45:03.900Z,3.68
2018-09-24T02:46:13.537Z,3.63
2018-09-24T02:47:23.140Z,3.68
2018-09-24T02:48:33.272Z,3.61
2018-09-24T02:49:43.405Z,3.58
2018-09-24T02:50:53.260Z,3.46
2018-09-24T02:52:03.388Z,3.46
2018-09-24T02:53:13.259Z,3.36
2018-09-24T02:54:23.112Z,3.36
2018-09-24T02:55:33.250Z,3.34
2018-09-24T02:56:43.385Z,3.21
2018-09-24T02:57:53.516Z,3.3
2018-09-24T02:59:03.369Z,3.33
2018-09-24T03:00:13.232Z,3.3
2018-09-24T03:01:23.563Z,3.43
2018-09-24T03:02:33.673Z,3.45
2018-09-24T03:03:43.812Z,3.55
2018-09-24T03:04:53.939Z,3.58
2018-09-24T03:06:03.793Z,3.61
2018-09-24T03:07:13.930Z,3.7
2018-09-24T03:08:23.780Z,3.55
2018-09-24T03:09:33.911Z,3.68
2018-09-24T03:10:43.781Z,3.68
2018-09-24T03:11:53.639Z,3.73
2018-09-24T03:13:03.769Z,3.68
2018-09-24T03:14:13.910Z,3.76
2018-09-24T03:15:23.832Z,3.82
2018-09-24T03:16:33.969Z,3.89
2018-09-24T03:17:44.097Z,4
2018-09-24T03:18:54.226Z,4.12
2018-09-24T03:20:04.080Z,4.12
2018-09-24T03:21:13.395Z,4.07
2018-09-24T03:22:23.251Z,4.2
2018-09-24T03:23:33.405Z,4.18
2018-09-24T03:24:43.539Z,4.18
2018-09-24T03:25:53.666Z,4.13
2018-09-24T03:27:03.577Z,4.07
2018-09-24T03:28:13.706Z,4.03
2018-09-24T03:29:23.011Z,3.99
2018-09-24T03:30:32.882Z,3.92
2018-09-24T03:31:42.752Z,3.89
2018-09-24T03:32:52.608Z,3.81
2018-09-24T03:34:02.462Z,3.78
2018-09-24T03:35:12.324Z,3.81
2018-09-24T03:36:22.185Z,3.74
2018-09-24T03:37:32.039Z,3.64
2018-09-24T03:38:42.169Z,3.67
2018-09-24T03:39:52.037Z,3.59
2018-09-24T03:41:02.186Z,3.68
2018-09-24T03:42:12.041Z,3.74
2018-09-24T03:43:21.933Z,3.78
2018-09-24T03:44:32.067Z,3.77
2018-09-24T03:45:42.193Z,3.76
2018-09-24T03:46:51.770Z,3.76
2018-09-24T03:48:01.923Z,3.82
2018-09-24T03:49:12.054Z,3.77
2018-09-24T03:50:21.937Z,3.78
2018-09-24T03:51:31.527Z,3.74
2018-09-24T03:52:41.388Z,3.82
2018-09-24T03:53:51.526Z,3.77
2018-09-24T03:55:01.388Z,3.94
2018-09-24T03:56:11.255Z,3.84
2018-09-24T03:57:21.392Z,3.91
2018-09-24T03:58:31.243Z,3.96
2018-09-24T03:59:41.376Z,3.91
2018-09-24T04:00:51.233Z,3.94
2018-09-24T04:02:01.364Z,3.91
2018-09-24T04:03:11.220Z,3.94
2018-09-24T04:04:21.350Z,3.95
2018-09-24T04:05:31.203Z,3.84
2018-09-24T04:06:41.059Z,3.82
2018-09-24T04:07:50.924Z,3.82
2018-09-24T04:09:01.075Z,3.82
2018-09-24T04:10:11.517Z,3.94
2018-09-24T04:11:21.979Z,3.96
2018-09-24T04:12:31.560Z,3.78
2018-09-24T04:13:41.695Z,3.76
2018-09-24T04:14:51.558Z,3.78
2018-09-24T04:16:01.134Z,3.71
2018-09-24T04:17:10.990Z,3.82
2018-09-24T04:18:21.116Z,3.81
2018-09-24T04:19:31.367Z,3.88
2018-09-24T04:20:41.737Z,3.99
2018-09-24T04:21:51.876Z,4.06
2018-09-24T04:23:01.456Z,4.04
2018-09-24T04:24:11.584Z,4.1
2018-09-24T04:25:21.758Z,4.18
2018-09-24T04:26:31.894Z,4.09
2018-09-24T04:27:41.472Z,4.3
2018-09-24T04:28:51.683Z,4.27
2018-09-24T04:30:01.823Z,4.34
2018-09-24T04:31:11.728Z,4.31
2018-09-24T04:32:21.865Z,4.36
2018-09-24T04:33:32.000Z,4.36
2018-09-24T04:34:41.582Z,4.36
2018-09-24T04:35:51.165Z,4.42
2018-09-24T04:37:01.337Z,4.45
2018-09-24T04:38:11.187Z,4.46
2018-09-24T04:39:21.372Z,4.42
2018-09-24T04:40:31.604Z,4.46
2018-09-24T04:41:41.471Z,4.49
2018-09-24T04:42:51.653Z,4.48
2018-09-24T04:44:01.230Z,4.48
2018-09-24T04:45:11.094Z,4.63
2018-09-24T04:46:20.951Z,4.64
2018-09-24T04:47:31.083Z,4.6
2018-09-24T04:48:41.218Z,4.52
2018-09-24T04:49:51.345Z,4.63
2018-09-24T04:51:01.208Z,4.53
2018-09-24T04:52:11.072Z,4.63
2018-09-24T04:53:21.203Z,4.58
2018-09-24T04:54:31.381Z,4.6
2018-09-24T04:55:40.963Z,4.63
2018-09-24T04:56:50.817Z,4.66
2018-09-24T04:58:00.676Z,4.52
2018-09-24T04:59:10.533Z,4.52
2018-09-24T05:00:20.437Z,4.58
2018-09-24T05:01:30.022Z,4.58
2018-09-24T05:02:39.878Z,4.6
2018-09-24T05:03:50.010Z,4.57
2018-09-24T05:04:59.318Z,4.57
2018-09-24T05:06:08.960Z,4.68
2018-09-24T05:07:18.811Z,4.64
2018-09-24T05:08:28.937Z,4.58
2018-09-24T05:09:39.068Z,4.66
2018-09-24T05:10:49.203Z,4.67
2018-09-24T05:11:58.832Z,4.68
2018-09-24T05:13:08.687Z,4.64
2018-09-24T05:14:18.545Z,4.79
2018-09-24T05:15:28.679Z,4.79
2018-09-24T05:16:38.789Z,4.71
2018-09-24T05:17:49.087Z,4.76
2018-09-24T05:18:58.665Z,4.76
2018-09-24T05:20:08.980Z,4.76
2018-09-24T05:21:19.384Z,4.82
2018-09-24T05:22:29.251Z,4.84
2018-09-24T05:23:39.432Z,4.78
2018-09-24T05:24:49.295Z,4.78
2018-09-24T05:25:59.144Z,4.76
2018-09-24T05:27:09.053Z,4.79
2018-09-24T05:28:19.275Z,4.82
2018-09-24T05:29:29.558Z,4.78
2018-09-24T05:30:39.691Z,4.75
2018-09-24T05:31:49.547Z,4.76
2018-09-24T05:32:59.399Z,4.74
2018-09-24T05:34:09.422Z,4.75
2018-09-24T05:35:19.311Z,4.68
2018-09-24T05:36:28.900Z,4.74
2018-09-24T05:37:39.033Z,4.71
2018-09-24T05:38:48.893Z,4.76
2018-09-24T05:39:58.746Z,4.76
2018-09-24T05:41:08.511Z,4.7
2018-09-24T05:42:18.800Z,4.75
2018-09-24T05:43:28.928Z,4.71
2018-09-24T05:44:38.781Z,4.79
2018-09-24T05:45:48.639Z,4.84
2018-09-24T05:46:58.555Z,4.87
2018-09-24T05:48:08.986Z,4.94
2018-09-24T05:49:18.570Z,4.83
2018-09-24T05:50:28.429Z,4.95
2018-09-24T05:51:38.554Z,4.92
2018-09-24T05:52:48.740Z,4.87
2018-09-24T05:53:58.866Z,4.95
2018-09-24T05:55:08.722Z,4.98
2018-09-24T05:56:18.851Z,4.94
2018-09-24T05:57:28.982Z,4.95
2018-09-24T05:58:38.609Z,4.94
2018-09-24T05:59:48.468Z,4.98
2018-09-24T06:00:58.601Z,4.94
2018-09-24T06:02:08.730Z,4.9
2018-09-24T06:03:18.859Z,4.9
2018-09-24T06:04:28.827Z,4.92
2018-09-24T06:05:39.183Z,4.9
2018-09-24T06:06:49.319Z,5.04
2018-09-24T06:07:59.449Z,5.01
2018-09-24T06:09:09.303Z,5.07
2018-09-24T06:10:19.216Z,5.12
2018-09-24T06:11:29.071Z,5.12
2018-09-24T06:12:38.927Z,5.18
2018-09-24T06:13:49.316Z,5.1
2018-09-24T06:14:59.447Z,5.2
2018-09-24T06:16:09.630Z,5.22
2018-09-24T06:17:19.760Z,5.29
2018-09-24T06:18:29.612Z,5.2
2018-09-24T06:19:39.748Z,5.23
2018-09-24T06:20:49.887Z,5.26
2018-09-24T06:21:59.521Z,5.25
2018-09-24T06:23:09.386Z,5.36
2018-09-24T06:24:19.517Z,5.38
2018-09-24T06:25:29.381Z,5.34
2018-09-24T06:26:38.967Z,5.47
2018-09-24T06:27:49.147Z,5.34
2018-09-24T06:28:59.273Z,5.4
2018-09-24T06:30:09.133Z,5.36
2018-09-24T06:31:19.261Z,5.41
2018-09-24T06:32:29.119Z,5.38
2018-09-24T06:33:39.031Z,5.52
2018-09-24T06:34:49.165Z,5.46
2018-09-24T06:35:59.026Z,5.56
2018-09-24T06:37:08.889Z,5.56
2018-09-24T06:38:19.074Z,5.61
2018-09-24T06:39:29.309Z,5.61
2018-09-24T06:40:39.162Z,5.64
2018-09-24T06:41:49.427Z,5.69
2018-09-24T06:42:59.543Z,5.65
2018-09-24T06:44:09.556Z,5.72
2018-09-24T06:45:19.461Z,5.76
2018-09-24T06:46:29.048Z,5.73
2018-09-24T06:47:39.185Z,5.88
2018-09-24T06:48:49.315Z,5.94
2018-09-24T06:49:59.489Z,5.9
2018-09-24T06:51:09.668Z,6.05
2018-09-24T06:52:19.799Z,5.92
2018-09-24T06:53:29.925Z,6.12
2018-09-24T06:54:39.778Z,6.17
2018-09-24T06:55:49.914Z,6.13
2018-09-24T06:56:59.821Z,6.15
2018-09-24T06:58:09.676Z,6.15
2018-09-24T06:59:19.529Z,6.15
2018-09-24T07:00:29.721Z,6.25
2018-09-24T07:01:39.849Z,6.36
2018-09-24T07:02:49.757Z,6.39
2018-09-24T07:03:59.617Z,6.31
2018-09-24T07:05:09.485Z,6.38
2018-09-24T07:06:19.347Z,6.41
2018-09-24T07:07:29.215Z,6.43
2018-09-24T07:08:39.116Z,6.44
2018-09-24T07:09:49.252Z,6.47
2018-09-24T07:10:59.103Z,6.54
2018-09-24T07:12:08.960Z,6.52
2018-09-24T07:13:19.090Z,6.59
2018-09-24T07:14:29.324Z,6.6
2018-09-24T07:15:39.457Z,6.67
2018-09-24T07:16:49.313Z,6.6
2018-09-24T07:17:59.455Z,6.57
2018-09-24T07:19:09.315Z,6.62
2018-09-24T07:20:19.283Z,6.65
2018-09-24T07:21:29.301Z,6.74
2018-09-24T07:22:39.673Z,6.8
2018-09-24T07:23:49.818Z,6.83
2018-09-24T07:24:59.670Z,6.8
2018-09-24T07:26:09.305Z,6.77
2018-09-24T07:27:18.884Z,6.83
2018-09-24T07:28:29.045Z,6.87
2018-09-24T07:29:39.280Z,6.82
2018-09-24T07:30:48.585Z,6.87
2018-09-24T07:31:58.765Z,6.93
2018-09-24T07:33:08.822Z,7.03
2018-09-24T07:34:19.221Z,7.08
2018-09-24T07:35:29.362Z,6.97
2018-09-24T07:36:38.945Z,7.08
2018-09-24T07:37:49.191Z,7.05
2018-09-24T07:38:59.046Z,7.22
2018-09-24T07:40:08.918Z,7.19
2018-09-24T07:41:18.781Z,7.14
2018-09-24T07:42:28.928Z,7.23
2018-09-24T07:43:39.477Z,7.25
2018-09-24T07:44:49.623Z,7.23
2018-09-24T07:45:59.765Z,7.32
2018-09-24T07:47:09.896Z,7.33
2018-09-24T07:48:20.028Z,7.4
2018-09-24T07:49:29.935Z,7.37
2018-09-24T07:50:40.071Z,7.5
2018-09-24T07:51:50.206Z,7.47
2018-09-24T07:53:00.064Z,7.56
2018-09-24T07:54:09.648Z,7.62
2018-09-24T07:55:20.009Z,7.61
2018-09-24T07:56:29.984Z,7.62
2018-09-24T07:57:39.843Z,7.61
2018-09-24T07:58:49.707Z,7.67
2018-09-24T07:59:59.848Z,7.69
2018-09-24T08:01:10.065Z,7.72
2018-09-24T08:02:20.202Z,7.7
2018-09-24T08:03:30.338Z,7.78
2018-09-24T08:04:39.926Z,7.74
2018-09-24T08:05:49.781Z,7.81
2018-09-24T08:06:59.767Z,7.78
2018-09-24T08:08:09.638Z,7.78
2018-09-24T08:09:19.779Z,7.8
2018-09-24T08:10:29.908Z,7.85
2018-09-24T08:11:39.764Z,7.87
2018-09-24T08:12:49.958Z,7.9
2018-09-24T08:14:00.377Z,7.96
2018-09-24T08:15:09.969Z,7.95
2018-09-24T08:16:19.842Z,7.93
2018-09-24T08:17:29.425Z,7.99
2018-09-24T08:18:39.060Z,7.98
2018-09-24T08:19:48.926Z,7.98
2018-09-24T08:20:58.647Z,7.98
2018-09-24T08:22:09.012Z,7.95
2018-09-24T08:23:18.594Z,8.06
2018-09-24T08:24:28.777Z,8.06
2018-09-24T08:25:38.643Z,8.11
2018-09-24T08:26:48.510Z,8.13
2018-09-24T08:27:58.370Z,8.14
2018-09-24T08:29:08.227Z,8.05
2018-09-24T08:30:18.368Z,8.08
2018-09-24T08:31:28.500Z,8.18
2018-09-24T08:32:38.661Z,8.23
2018-09-24T08:33:48.518Z,8.2
2018-09-24T08:34:57.830Z,8.32
2018-09-24T08:36:07.801Z,8.24
2018-09-24T08:37:17.421Z,8.26
2018-09-24T08:38:27.005Z,8.23
2018-09-24T08:39:36.859Z,8.26
2018-09-24T08:40:46.482Z,8.26
2018-09-24T08:41:56.659Z,8.23
2018-09-24T08:43:06.514Z,8.27
2018-09-24T08:44:16.713Z,8.24
2018-09-24T08:45:26.934Z,8.23
2018-09-24T08:46:37.074Z,8.24
2018-09-24T08:47:46.938Z,8.32
2018-09-24T08:48:56.521Z,8.39
2018-09-24T08:50:06.736Z,8.35
2018-09-24T08:51:16.319Z,8.44
2018-09-24T08:52:26.178Z,8.42
2018-09-24T08:53:36.337Z,8.53
2018-09-24T08:54:46.215Z,8.46
2018-09-24T08:55:56.121Z,8.45
2018-09-24T08:57:06.059Z,8.49
2018-09-24T08:58:16.500Z,8.6
2018-09-24T08:59:26.404Z,8.54
2018-09-24T09:00:36.268Z,8.56
2018-09-24T09:01:46.399Z,8.68
2018-09-24T09:02:56.084Z,8.68
2018-09-24T09:04:06.223Z,8.54
2018-09-24T09:05:16.093Z,8.56
2018-09-24T09:06:25.675Z,8.63
2018-09-24T09:07:35.805Z,8.64
2018-09-24T09:08:45.934Z,8.69
2018-09-24T09:09:55.797Z,8.72
2018-09-24T09:11:05.665Z,8.72
2018-09-24T09:12:15.249Z,8.75
2018-09-24T09:13:25.385Z,8.74
2018-09-24T09:14:34.971Z,8.82
2018-09-24T09:15:44.828Z,8.89
2018-09-24T09:16:54.961Z,8.92
2018-09-24T09:18:05.102Z,8.99
2018-09-24T09:19:15.252Z,8.9
2018-09-24T09:20:25.112Z,8.93
2018-09-24T09:21:34.979Z,8.96
2018-09-24T09:22:44.290Z,9.12
2018-09-24T09:23:54.237Z,9.09
2018-09-24T09:25:03.848Z,9.11
2018-09-24T09:26:13.436Z,9.09
2018-09-24T09:27:23.565Z,9.09
2018-09-24T09:28:33.155Z,9.12
2018-09-24T09:29:42.736Z,9.03
2018-09-24T09:30:52.889Z,9.24
2018-09-24T09:32:02.475Z,9.16
2018-09-24T09:33:12.334Z,9.22
2018-09-24T09:34:21.639Z,9.29
2018-09-24T09:35:31.780Z,9.36
2018-09-24T09:36:41.639Z,9.44
2018-09-24T09:37:51.775Z,9.39
2018-09-24T09:39:01.631Z,9.44
2018-09-24T09:40:11.494Z,9.51
2018-09-24T09:41:21.352Z,9.54
2018-09-24T09:42:31.219Z,9.52
2018-09-24T09:43:41.081Z,9.55
2018-09-24T09:44:50.938Z,9.64
2018-09-24T09:46:01.085Z,9.45
2018-09-24T09:47:11.222Z,9.55
2018-09-24T09:48:21.359Z,9.54
2018-09-24T09:49:31.220Z,9.56
2018-09-24T09:50:41.086Z,9.67
2018-09-24T09:51:50.680Z,9.58
2018-09-24T09:53:00.537Z,9.52
2018-09-24T09:54:10.401Z,9.56
2018-09-24T09:55:20.536Z,9.48
2018-09-24T09:56:30.397Z,9.59
2018-09-24T09:57:40.540Z,9.56
2018-09-24T09:58:50.403Z,9.62
2018-09-24T09:59:59.994Z,9.56
2018-09-24T10:01:10.134Z,9.66
2018-09-24T10:02:19.997Z,9.44
2018-09-24T10:03:29.856Z,9.55
2018-09-24T10:04:39.793Z,9.59
2018-09-24T10:05:50.140Z,9.66
2018-09-24T10:06:59.998Z,9.64
2018-09-24T10:08:09.583Z,9.8
2018-09-24T10:09:19.455Z,9.77
2018-09-24T10:10:29.590Z,9.82
2018-09-24T10:11:39.457Z,9.63
2018-09-24T10:12:49.040Z,9.74
2018-09-24T10:13:58.368Z,9.76
2018-09-24T10:15:08.500Z,9.8
2018-09-24T10:16:18.359Z,9.8
2018-09-24T10:17:27.943Z,9.8
2018-09-24T10:18:38.082Z,9.88
2018-09-24T10:19:48.216Z,9.87
2018-09-24T10:20:58.075Z,9.9
2018-09-24T10:22:08.234Z,9.91
2018-09-24T10:23:17.545Z,9.92
2018-09-24T10:24:27.687Z,9.84
2018-09-24T10:25:37.547Z,9.92
2018-09-24T10:26:47.686Z,9.94
2018-09-24T10:27:57.547Z,9.94
2018-09-24T10:29:06.862Z,10
2018-09-24T10:30:16.994Z,10.15
2018-09-24T10:31:26.852Z,10.12
2018-09-24T10:32:36.724Z,10.2
2018-09-24T10:33:47.210Z,10.18
2018-09-24T10:34:57.296Z,10.27
2018-09-24T10:36:07.429Z,10.18
2018-09-24T10:37:17.013Z,10.24
2018-09-24T10:38:27.151Z,10.38
2018-09-24T10:39:37.141Z,10.41
2018-09-24T10:40:47.509Z,10.38
2018-09-24T10:41:57.641Z,10.31
2018-09-24T10:43:07.783Z,10.15
2018-09-24T10:44:17.914Z,10.09
2018-09-24T10:45:27.776Z,10.28
2018-09-24T10:46:37.906Z,10.38
2018-09-24T10:47:48.050Z,10.34
2018-09-24T10:48:58.184Z,10.34
2018-09-24T10:50:07.832Z,10.38
2018-09-24T10:51:17.967Z,10.33
2018-09-24T10:52:27.593Z,10.25
2018-09-24T10:53:37.186Z,10.41
2018-09-24T10:54:47.322Z,10.58
2018-09-24T10:55:57.758Z,10.84
2018-09-24T10:57:07.399Z,11.02
2018-09-24T10:58:17.257Z,11.41
2018-09-24T10:59:27.126Z,11.78
2018-09-24T11:00:37.300Z,12.07
2018-09-24T11:01:47.168Z,12.54
2018-09-24T11:02:57.127Z,12.78
2018-09-24T11:04:07.153Z,12.58
2018-09-24T11:05:17.286Z,12.51
2018-09-24T11:06:27.147Z,12.53
2018-09-24T11:07:37.297Z,12.91
2018-09-24T11:08:46.887Z,13.39
2018-09-24T11:09:57.026Z,13.36
2018-09-24T11:11:06.619Z,13.28
2018-09-24T11:12:16.225Z,13.01
2018-09-24T11:13:26.092Z,13.06
2018-09-24T11:14:36.229Z,13.19
2018-09-24T11:15:46.312Z,13.37
2018-09-24T11:16:57.488Z,13.46
2018-09-24T11:18:08.570Z,13.64
2018-09-24T11:19:19.196Z,13.97
2018-09-24T11:20:29.067Z,14.26
2018-09-24T11:21:39.207Z,13.76
2018-09-24T11:22:49.075Z,13.94
2018-09-24T11:23:58.670Z,14.52
2018-09-24T11:25:08.818Z,14.86
2018-09-24T11:27:42.760Z,15.18
2018-09-24T11:28:52.905Z,15.19
2018-09-24T11:30:03.052Z,15.55
2018-09-24T11:31:12.916Z,15.19
2018-09-24T11:32:22.791Z,15.36
2018-09-24T11:33:32.660Z,15.47
2018-09-24T11:34:42.257Z,15.76
2018-09-24T11:35:52.400Z,15.47
2018-09-24T11:37:02.265Z,15.66
2018-09-24T11:38:12.140Z,15.75
2018-09-24T11:39:22.006Z,16.08
2018-09-24T11:40:32.160Z,16.05
2018-09-24T11:41:42.316Z,15.99
2018-09-24T11:42:51.909Z,15.14
2018-09-24T11:44:01.783Z,15.18
2018-09-24T11:45:11.662Z,15.04
2018-09-24T11:46:21.854Z,15.44
2018-09-24T11:47:31.886Z,15.8
2018-09-24T11:48:41.756Z,15.99
2018-09-24T11:49:51.900Z,16.39
2018-09-24T11:51:01.767Z,15.81
2018-09-24T11:52:11.361Z,16.12
2018-09-24T11:53:21.242Z,16.29
2018-09-24T11:54:31.385Z,16.73
2018-09-24T11:55:41.254Z,16.95
2018-09-24T11:56:50.848Z,17.22
2018-09-24T11:58:00.999Z,16.69
2018-09-24T11:59:11.198Z,16.39
2018-09-24T12:00:20.520Z,16.57
2018-09-24T12:01:30.683Z,16.57
2018-09-24T12:02:40.280Z,16.65
2018-09-24T12:03:50.155Z,16.64
2018-09-24T12:05:00.350Z,16.79
2018-09-24T12:06:10.218Z,16.57
2018-09-24T12:07:20.359Z,16.83
2018-09-24T12:08:30.505Z,16.74
2018-09-24T12:09:40.417Z,16.65
2018-09-24T12:10:50.013Z,16.62
2018-09-24T12:11:59.887Z,16.65
2018-09-24T12:13:09.759Z,16.95
2018-09-24T12:14:19.628Z,17.14
2018-09-24T12:15:29.777Z,17.27
2018-09-24T12:16:39.373Z,17.54
2018-09-24T12:17:49.535Z,17.66
2018-09-24T12:18:59.710Z,17.91
2018-09-24T12:20:09.309Z,17.8
2018-09-24T12:21:19.179Z,16.98
2018-09-24T12:22:29.329Z,17.37
2018-09-24T12:23:39.202Z,16.86
2018-09-24T12:24:49.078Z,16.22
2018-09-24T12:25:58.676Z,16.39
2018-09-24T12:27:08.824Z,16.43
2018-09-24T12:28:18.749Z,16.13
2018-09-24T12:29:28.901Z,15.98
2018-09-24T12:30:39.051Z,15.73
2018-09-24T12:31:48.932Z,15.98
2018-09-24T12:32:59.084Z,15.92
2018-09-24T12:34:09.331Z,15.75
2018-09-24T12:35:19.482Z,15.85
2018-09-24T12:36:29.623Z,15.78
2018-09-24T12:37:39.491Z,16.08
2018-09-24T12:38:49.640Z,16.54
2018-09-24T12:39:59.568Z,16.72
2018-09-24T12:41:09.201Z,16.92
2018-09-24T12:42:19.084Z,17.27
2018-09-24T12:43:28.955Z,16.95
2018-09-24T12:44:38.826Z,16.86
2018-09-24T12:45:48.743Z,17.04
2018-09-24T12:46:58.889Z,17.1
2018-09-24T12:48:08.342Z,16.77
2018-09-24T12:49:18.298Z,16.28
2018-09-24T12:50:28.453Z,16.76
2018-09-24T12:51:38.644Z,17.13
2018-09-24T12:52:48.785Z,17.5
2018-09-24T12:53:58.660Z,17.69
2018-09-24T12:55:08.531Z,17.27
2018-09-24T12:56:18.407Z,16.58
2018-09-24T12:57:28.606Z,16.32
2018-09-24T12:58:38.477Z,15.36
2018-09-24T12:59:48.352Z,14.73
2018-09-24T13:00:58.497Z,14.49
2018-09-24T13:02:08.370Z,14.12
2018-09-24T13:03:18.235Z,13.64
2018-09-24T13:04:28.381Z,13.31
2018-09-24T13:05:38.259Z,13.02
2018-09-24T13:06:48.401Z,13.05
2018-09-24T13:07:58.266Z,12.8
2018-09-24T13:09:08.457Z,12.51
2018-09-24T13:10:17.774Z,12.18
2018-09-24T13:11:27.926Z,11.88
2018-09-24T13:12:37.787Z,11.81
2018-09-24T13:13:47.384Z,11.62
2018-09-24T13:14:57.306Z,11.65
2018-09-24T13:16:06.622Z,11.51
2018-09-24T13:17:16.760Z,11.43
2018-09-24T13:18:26.350Z,11.31
2018-09-24T13:19:36.217Z,11.22
2018-09-24T13:20:46.128Z,11.16
2018-09-24T13:21:55.995Z,11.19
2018-09-24T13:23:05.880Z,11.13
2018-09-24T13:24:15.746Z,11.1
2018-09-24T13:25:25.883Z,11.08
2018-09-24T13:26:35.796Z,11.13
2018-09-24T13:27:45.662Z,11.01
2018-09-24T13:28:55.525Z,10.9
2018-09-24T13:30:05.116Z,10.94
2018-09-24T13:31:15.257Z,10.89
2018-09-24T13:32:25.174Z,10.97
2018-09-24T13:33:34.771Z,10.97
2018-09-24T13:34:44.080Z,10.9
2018-09-24T13:35:54.211Z,10.84
2018-09-24T13:37:04.351Z,10.86
2018-09-24T13:38:14.536Z,10.84
2018-09-24T13:39:24.397Z,10.84
2018-09-24T13:40:34.531Z,10.86
2018-09-24T13:41:44.675Z,10.98
2018-09-24T13:42:54.258Z,10.86
2018-09-24T13:44:04.002Z,10.9
2018-09-24T13:45:14.219Z,10.84
2018-09-24T13:46:24.562Z,10.89
2018-09-24T13:47:34.428Z,10.82
2018-09-24T13:48:44.564Z,10.94
2018-09-24T13:49:54.751Z,10.86
2018-09-24T13:51:04.616Z,10.95
2018-09-24T13:52:13.941Z,11
2018-09-24T13:53:24.011Z,11.02
2018-09-24T13:54:34.307Z,10.98
2018-09-24T13:55:44.264Z,11.04
2018-09-24T13:56:53.568Z,11.12
2018-09-24T13:58:03.156Z,11.26
2018-09-24T13:59:13.289Z,11.26
2018-09-24T14:00:23.148Z,11.2
2018-09-24T14:01:33.332Z,11.25
2018-09-24T14:02:43.478Z,11.26
2018-09-24T14:03:53.397Z,11.34
2018-09-24T14:05:03.269Z,11.26
2018-09-24T14:06:13.403Z,11.12
2018-09-24T14:07:23.588Z,11.01
2018-09-24T14:08:33.179Z,11.02
2018-09-24T14:09:42.765Z,10.98
2018-09-24T14:10:52.659Z,11.01
2018-09-24T14:12:02.295Z,11
2018-09-24T14:13:12.036Z,11.02
2018-09-24T14:14:22.328Z,11.08
2018-09-24T14:15:32.462Z,11.04
2018-09-24T14:16:42.329Z,10.9
2018-09-24T14:17:52.184Z,10.9
2018-09-24T14:19:02.101Z,10.98
2018-09-24T14:20:11.971Z,10.9
2018-09-24T14:21:22.110Z,11
2018-09-24T14:22:31.970Z,11.05
2018-09-24T14:23:41.827Z,11.31
2018-09-24T14:24:52.012Z,11.43
2018-09-24T14:26:01.870Z,11.49
2018-09-24T14:27:11.733Z,11.65
2018-09-24T14:28:21.318Z,12.14
2018-09-24T14:29:31.180Z,12.17
2018-09-24T14:30:41.100Z,12.63
2018-09-24T14:31:50.963Z,12.61
2018-09-24T14:33:00.840Z,12.63
2018-09-24T14:34:11.299Z,12.84
2018-09-24T14:35:21.489Z,13.21
2018-09-24T14:36:31.399Z,13.58
2018-09-24T14:37:41.544Z,14.12
2018-09-24T14:38:51.419Z,14.62
2018-09-24T14:40:01.277Z,15.02
2018-09-24T14:41:11.155Z,15.55
2018-09-24T14:42:21.068Z,15.94
2018-09-24T14:43:30.932Z,15.6
2018-09-24T14:44:40.801Z,15.43
2018-09-24T14:45:50.939Z,15.32
2018-09-24T14:47:01.085Z,15.41
2018-09-24T14:48:11.284Z,15.73
2018-09-24T14:49:21.146Z,15.91
2018-09-24T14:50:30.736Z,16.17
2018-09-24T14:51:40.607Z,16.08
2018-09-24T14:52:50.749Z,16
2018-09-24T14:54:00.388Z,16.28
2018-09-24T14:55:10.261Z,15.72
2018-09-24T14:56:20.401Z,16.21
2018-09-24T14:57:29.993Z,16.72
2018-09-24T14:58:39.861Z,16.55
2018-09-24T14:59:50.067Z,17.13
2018-09-24T15:01:00.217Z,17.04
2018-09-24T15:02:09.537Z,17.02
2018-09-24T15:03:19.781Z,16.13
2018-09-24T15:04:30.159Z,15.98
2018-09-24T15:05:39.800Z,15.98
2018-09-24T15:06:49.669Z,16.25
2018-09-24T15:07:59.915Z,16.51
2018-09-24T15:09:09.512Z,16.39
2018-09-24T15:10:19.105Z,16.87
2018-09-24T15:11:43.900Z,16.91
2018-09-24T15:12:54.041Z,16.86
2018-09-24T15:14:03.638Z,16.95
2018-09-24T15:15:13.779Z,16.28
2018-09-24T15:16:23.372Z,16.16
2018-09-24T15:17:33.515Z,15.69
2018-09-24T15:18:43.110Z,15.35
2018-09-24T15:19:52.975Z,14.77
2018-09-24T15:21:03.123Z,14.44
2018-09-24T15:22:13.151Z,14.25
2018-09-24T15:23:23.076Z,14.13
2018-09-24T15:24:33.219Z,13.64
2018-09-24T15:25:43.088Z,13.13
2018-09-24T15:26:53.232Z,12.81